Time;durP1;ratioP1;P1;durP2;ratioP2;P2;SDS_P1;SDS_P2;PMS_P1;PMS_P2;Temp;Humidity;BMP_temperature;BMP_pressure;BME280_temperature;BME280_humidity;BME280_pressure;Samples;Min_cycle;Max_cycle;Signal;HPM_P1;HPM_P2
2021/03/01 00:01:08;;;;;;;18.62;8.33;;;;;;;3.05;67.47;100312.70;1786734;78;21248;-83
2021/03/01 00:03:36;;;;;;;15.08;6.83;;;;;;;3.06;68.20;100305.01;1759914;80;21225;-83
2021/03/01 00:06:04;;;;;;;16.12;8.05;;;;;;;3.08;66.41;100299.91;1726808;79;21301;-84
2021/03/01 00:08:31;;;;;;;20.88;8.53;;;;;;;3.09;67.49;100302.95;1758342;80;21242;-82
2021/03/01 00:10:59;;;;;;;17.52;8.10;;;;;;;3.08;67.62;100297.34;1741347;79;21320;-83
2021/03/01 00:13:27;;;;;;;16.95;8.00;;;;;;;3.08;68.05;100291.78;1783521;79;21292;-83
2021/03/01 00:15:57;;;;;;;15.08;7.33;;;;;;;3.09;68.47;100290.97;1775197;77;21150;-84
2021/03/01 00:18:25;;;;;;;18.62;7.37;;;;;;;3.14;66.81;100286.82;1785334;77;21280;-84
2021/03/01 00:20:53;;;;;;;20.37;8.25;;;;;;;3.14;67.72;100275.65;1785333;77;21296;-83
2021/03/01 00:23:20;;;;;;;17.95;7.25;;;;;;;3.17;67.79;100274.45;1764206;80;21293;-83
2021/03/01 00:25:48;;;;;;;18.60;8.00;;;;;;;3.19;67.86;100248.38;1735206;81;21280;-82
2021/03/01 00:28:15;;;;;;;23.07;7.33;;;;;;;3.23;66.48;100249.31;1765684;80;21307;-84
2021/03/01 00:30:43;;;;;;;15.28;8.05;;;;;;;3.22;67.26;100239.43;1735512;79;21272;-83
2021/03/01 00:33:11;;;;;;;19.60;7.95;;;;;;;3.20;68.05;100235.95;1765667;81;21307;-82
2021/03/01 00:35:39;;;;;;;19.00;6.60;;;;;;;3.23;67.24;100236.05;1755391;82;21256;-82
2021/03/01 00:38:07;;;;;;;17.95;6.87;;;;;;;3.22;66.77;100230.86;1769686;79;21241;-84
2021/03/01 00:40:35;;;;;;;13.58;6.10;;;;;;;3.20;67.47;100223.11;1763092;80;21462;-84
2021/03/01 00:43:08;;;;;;;16.05;7.50;;;;;;;3.21;67.79;100216.30;1766453;81;21197;-83
2021/03/01 00:45:36;;;;;;;14.15;6.78;;;;;;;3.21;68.02;100212.02;1766051;81;21280;-82
2021/03/01 00:48:06;;;;;;;16.87;7.53;;;;;;;3.22;67.68;100221.44;1780124;78;21348;-84
2021/03/01 00:50:34;;;;;;;22.20;7.50;;;;;;;3.25;67.67;100227.95;1770542;80;21300;-84
2021/03/01 00:53:01;;;;;;;17.27;7.33;;;;;;;3.30;66.80;100218.66;1760894;81;21264;-81
2021/03/01 00:55:29;;;;;;;16.93;6.62;;;;;;;3.26;68.09;100213.39;1768647;81;21307;-83
2021/03/01 00:57:57;;;;;;;17.20;7.25;;;;;;;3.28;67.58;100211.72;1765591;81;21273;-83
2021/03/01 01:00:25;;;;;;;16.65;8.15;;;;;;;3.28;67.35;100207.86;1724761;83;21295;-83
2021/03/01 01:02:54;;;;;;;18.23;8.08;;;;;;;3.25;67.97;100209.95;1758961;81;21248;-83
2021/03/01 01:05:27;;;;;;;15.35;7.65;;;;;;;3.28;66.95;100198.87;1762654;78;21280;-82
2021/03/01 01:07:54;;;;;;;14.85;6.75;;;;;;;3.24;68.22;100199.64;1736184;81;21287;-83
2021/03/01 01:10:22;;;;;;;17.48;7.08;;;;;;;3.24;67.62;100192.78;1767355;79;21260;-83
2021/03/01 01:12:50;;;;;;;21.20;7.58;;;;;;;3.23;68.29;100198.78;1761508;81;21279;-83
2021/03/01 01:15:18;;;;;;;20.68;7.53;;;;;;;3.22;68.20;100176.89;1766220;78;21243;-83
2021/03/01 01:17:45;;;;;;;18.05;7.87;;;;;;;3.22;68.03;100167.47;1766195;81;21267;-83
2021/03/01 01:20:15;;;;;;;18.00;7.72;;;;;;;3.25;67.85;100175.27;1743558;81;21273;-82
2021/03/01 01:22:43;;;;;;;15.45;7.33;;;;;;;3.30;67.32;100167.25;1759168;79;21327;-84
2021/03/01 01:25:14;;;;;;;15.08;6.40;;;;;;;3.21;68.50;100173.89;1789936;80;21303;-82
2021/03/01 01:27:42;;;;;;;20.90;8.08;;;;;;;3.22;68.07;100163.62;1723246;82;21517;-82
2021/03/01 01:30:16;;;;;;;24.15;7.15;;;;;;;3.20;68.34;100171.71;1765856;81;21247;-82
2021/03/01 01:32:44;;;;;;;17.27;6.92;;;;;;;3.12;69.15;100174.53;1766245;81;21267;-82
2021/03/01 01:35:13;;;;;;;18.00;7.83;;;;;;;3.18;68.77;100170.81;1766152;81;21259;-82
2021/03/01 01:37:41;;;;;;;17.60;6.75;;;;;;;3.23;68.29;100170.50;1755598;78;21300;-83
2021/03/01 01:40:13;;;;;;;19.65;7.22;;;;;;;3.22;68.52;100157.19;1766296;78;21253;-83
2021/03/01 01:42:40;;;;;;;15.65;7.45;;;;;;;2.97;68.17;100098.86;1766581;78;21368;-82
2021/03/01 01:45:15;;;;;;;20.00;8.00;;;;;;;3.35;68.02;100145.48;1766397;81;21278;-83
2021/03/01 01:47:44;;;;;;;20.48;7.55;;;;;;;3.42;67.64;100154.19;1788672;80;21174;-83
2021/03/01 01:50:13;;;;;;;17.60;7.10;;;;;;;3.48;66.86;100154.31;1763730;81;21549;-81
2021/03/01 01:52:45;;;;;;;14.40;7.20;;;;;;;3.51;66.68;100165.95;1762811;78;21281;-83
2021/03/01 01:55:13;;;;;;;15.88;7.28;;;;;;;3.52;66.85;100167.67;1766856;81;21149;-82
2021/03/01 01:57:42;;;;;;;14.70;6.60;;;;;;;3.53;66.72;100165.14;1766225;81;21269;-83
2021/03/01 02:00:40;;;;;;;18.77;7.45;;;;;;;3.55;66.61;100170.32;1766393;78;21273;-83
2021/03/01 02:03:25;;;;;;;16.60;8.00;;;;;;;3.58;66.00;100175.11;1706957;82;21295;-82
2021/03/01 02:05:57;;;;;;;18.48;6.53;;;;;;;3.62;66.31;100179.02;1764281;79;21273;-83
2021/03/01 02:08:51;;;;;;;17.80;7.25;;;;;;;3.59;66.79;100181.12;1764536;81;21600;-82
2021/03/01 02:11:24;;;;;;;16.57;7.10;;;;;;;3.65;66.29;100182.52;1721821;82;21278;-83
2021/03/01 02:14:00;;;;;;;16.05;7.17;;;;;;;3.67;66.19;100183.42;1741365;80;21434;-83
2021/03/01 02:16:35;;;;;;;14.85;7.22;;;;;;;3.67;66.20;100183.42;1714528;82;21303;-80
2021/03/01 02:19:04;;;;;;;15.75;6.85;;;;;;;3.70;66.87;100183.89;1734358;82;21300;-83
2021/03/01 02:21:34;;;;;;;12.80;5.95;;;;;;;3.69;66.75;100172.75;1741021;81;21270;-81
2021/03/01 02:24:02;;;;;;;16.00;6.62;;;;;;;3.71;66.81;100167.21;1736799;81;21256;-82
2021/03/01 02:26:33;;;;;;;15.32;7.08;;;;;;;3.74;66.49;100161.25;1745060;82;21274;-84
2021/03/01 02:29:05;;;;;;;14.75;5.83;;;;;;;3.69;67.06;100155.17;1754951;78;21247;-83
2021/03/01 02:31:38;;;;;;;20.25;8.55;;;;;;;3.65;67.25;100154.23;1747415;82;21270;-82
2021/03/01 02:34:10;;;;;;;20.05;8.10;;;;;;;3.73;67.32;100181.39;1742532;81;21273;-83
2021/03/01 02:36:51;;;;;;;16.23;7.60;;;;;;;3.70;67.14;100183.50;1746066;81;21258;-83
2021/03/01 02:39:23;;;;;;;17.50;7.22;;;;;;;3.72;66.79;100175.39;1752064;81;21281;-81
2021/03/01 02:41:52;;;;;;;20.15;8.70;;;;;;;3.73;66.59;100180.97;1733330;83;21275;-83
2021/03/01 02:44:21;;;;;;;16.82;7.03;;;;;;;3.71;67.01;100183.93;1753335;81;21165;-81
2021/03/01 02:46:50;;;;;;;19.77;7.67;;;;;;;3.69;66.53;100172.75;1790361;80;21260;-82
2021/03/01 02:49:18;;;;;;;20.48;8.23;;;;;;;3.68;66.32;100177.85;1799308;80;21243;-82
2021/03/01 02:51:50;;;;;;;19.57;7.35;;;;;;;3.68;66.08;100171.03;1799256;80;21342;-83
2021/03/01 02:54:20;;;;;;;17.57;7.83;;;;;;;3.63;66.85;100167.48;1800741;80;21220;-84
2021/03/01 02:56:50;;;;;;;24.07;8.65;;;;;;;3.62;66.71;100168.34;1791209;80;21256;-83
2021/03/01 02:59:20;;;;;;;16.02;7.03;;;;;;;3.60;67.27;100166.13;1801427;80;21282;-84
2021/03/01 03:01:50;;;;;;;21.30;8.25;;;;;;;3.63;67.07;100160.19;1786197;80;21102;-84
2021/03/01 03:04:20;;;;;;;23.55;9.10;;;;;;;3.60;67.65;100178.98;1801166;80;21326;-83
2021/03/01 03:06:49;;;;;;;17.35;7.78;;;;;;;3.58;67.42;100175.51;1800871;80;21252;-83
2021/03/01 03:09:17;;;;;;;18.92;8.10;;;;;;;3.58;67.47;100178.97;1766987;80;21332;-83
2021/03/01 03:11:46;;;;;;;23.62;9.83;;;;;;;3.56;67.82;100176.78;1800626;80;21285;-83
2021/03/01 03:14:20;;;;;;;18.65;8.10;;;;;;;3.62;66.91;100185.05;1801594;80;21448;-83
2021/03/01 03:16:55;;;;;;;18.52;7.92;;;;;;;3.62;67.25;100196.63;1799506;80;21254;-83
2021/03/01 03:19:23;;;;;;;19.17;7.35;;;;;;;3.64;66.93;100203.95;1768682;79;21239;-82
2021/03/01 03:21:50;;;;;;;22.07;8.58;;;;;;;3.63;67.73;100195.77;1803077;79;21713;-82
2021/03/01 03:24:18;;;;;;;21.40;7.83;;;;;;;3.65;67.73;100197.95;1801570;79;21254;-83
2021/03/01 03:26:46;;;;;;;22.05;7.75;;;;;;;3.66;67.06;100202.28;1799999;80;21282;-83
2021/03/01 03:29:14;;;;;;;26.02;8.53;;;;;;;3.69;67.42;100197.61;1792759;80;21166;-82
2021/03/01 03:31:41;;;;;;;19.87;8.83;;;;;;;3.66;67.74;100198.42;1798286;80;21329;-84
2021/03/01 03:34:10;;;;;;;19.85;7.50;;;;;;;3.66;67.85;100209.99;1795121;80;21237;-83
2021/03/01 03:36:44;;;;;;;18.60;7.12;;;;;;;3.68;67.62;100210.89;1796086;79;21248;-81
2021/03/01 03:39:15;;;;;;;22.15;7.90;;;;;;;3.71;67.64;100221.65;1800922;79;21281;-82
2021/03/01 03:41:46;;;;;;;21.30;7.70;;;;;;;3.75;67.05;100219.16;1760972;80;21256;-83
2021/03/01 03:44:16;;;;;;;23.40;8.00;;;;;;;3.77;67.25;100226.49;1736772;82;21264;-83
2021/03/01 03:46:44;;;;;;;19.65;7.25;;;;;;;3.84;67.25;100230.47;1776064;80;21243;-82
2021/03/01 03:49:14;;;;;;;18.95;8.28;;;;;;;3.88;67.10;100232.27;1779493;79;21217;-83
2021/03/01 03:51:44;;;;;;;19.75;7.42;;;;;;;3.95;67.25;100226.42;1733319;81;21259;-83
2021/03/01 03:54:25;;;;;;;29.40;9.48;;;;;;;3.97;67.12;100230.75;1760116;80;21521;-83
2021/03/01 03:56:56;;;;;;;20.70;9.13;;;;;;;3.98;67.15;100230.36;1768530;80;21490;-83
2021/03/01 03:59:32;;;;;;;23.45;8.95;;;;;;;4.02;66.79;100236.41;1766856;78;21280;-82
2021/03/01 04:02:01;;;;;;;21.40;8.45;;;;;;;3.99;67.15;100232.08;1773545;79;21284;-81
2021/03/01 04:04:32;;;;;;;17.10;8.50;;;;;;;4.01;66.90;100238.55;1794793;80;21137;-81
2021/03/01 04:07:03;;;;;;;22.42;8.88;;;;;;;3.99;66.92;100238.50;1765922;81;21137;-83
2021/03/01 04:09:31;;;;;;;21.95;9.13;;;;;;;3.98;66.52;100245.37;1766187;81;21126;-83
2021/03/01 04:12:02;;;;;;;25.43;8.98;;;;;;;3.96;67.44;100246.19;1766616;79;21277;-83
2021/03/01 04:14:33;;;;;;;24.45;9.43;;;;;;;3.96;66.93;100249.62;1786884;80;21262;-83
2021/03/01 04:17:05;;;;;;;22.40;9.35;;;;;;;3.97;66.88;100253.05;1760704;80;21870;-82
2021/03/01 04:19:34;;;;;;;19.80;8.58;;;;;;;3.95;67.22;100241.86;1735055;78;21259;-82
2021/03/01 04:22:02;;;;;;;17.10;7.75;;;;;;;3.92;69.13;100238.81;1729481;81;21284;-82
2021/03/01 04:24:34;;;;;;;23.98;9.25;;;;;;;3.94;68.29;100238.42;1745578;79;21199;-81
2021/03/01 04:27:04;;;;;;;20.25;9.20;;;;;;;3.91;68.39;100237.06;1761411;80;21779;-81
2021/03/01 04:29:35;;;;;;;23.32;8.98;;;;;;;3.89;69.28;100232.30;1798983;80;21117;-81
2021/03/01 04:32:03;;;;;;;24.67;9.80;;;;;;;3.90;69.42;100231.88;1770746;80;21265;-83
2021/03/01 04:34:32;;;;;;;21.10;9.90;;;;;;;3.89;68.77;100235.30;1780744;80;21255;-84
2021/03/01 04:37:00;;;;;;;24.50;10.18;;;;;;;3.83;69.42;100230.90;1759912;80;21587;-82
2021/03/01 04:39:27;;;;;;;21.37;9.65;;;;;;;3.78;71.14;100223.09;1766046;81;21260;-83
2021/03/01 04:41:55;;;;;;;25.15;9.00;;;;;;;3.74;71.51;100232.88;1776690;80;21252;-82
2021/03/01 04:44:23;;;;;;;26.60;9.45;;;;;;;3.79;69.98;100232.96;1787152;78;21252;-83
2021/03/01 04:46:55;;;;;;;23.10;9.23;;;;;;;3.85;69.32;100230.94;1786860;80;21248;-83
2021/03/01 04:49:24;;;;;;;22.10;8.80;;;;;;;3.83;70.17;100224.89;1788891;79;21254;-82
2021/03/01 04:51:53;;;;;;;20.90;8.48;;;;;;;3.82;70.83;100229.18;1798596;78;21240;-83
2021/03/01 04:54:21;;;;;;;17.87;8.55;;;;;;;3.84;70.02;100227.90;1782686;80;21283;-82
2021/03/01 04:56:49;;;;;;;26.45;9.20;;;;;;;3.87;70.01;100230.55;1788308;80;21205;-83
2021/03/01 04:59:19;;;;;;;24.77;9.20;;;;;;;3.83;70.65;100222.33;1785366;80;21281;-82
2021/03/01 05:01:51;;;;;;;21.27;9.30;;;;;;;3.85;69.66;100229.23;1786506;80;21320;-83
2021/03/01 05:04:20;;;;;;;23.38;9.63;;;;;;;3.72;70.32;100218.23;1785652;80;21291;-82
2021/03/01 05:06:47;;;;;;;21.17;9.60;;;;;;;3.75;70.79;100238.45;1793746;79;21265;-82
2021/03/01 05:09:17;;;;;;;22.77;8.88;;;;;;;3.79;69.93;100249.25;1794805;79;21304;-82
2021/03/01 05:11:46;;;;;;;23.00;9.68;;;;;;;3.78;69.68;100251.39;1786496;80;21279;-83
2021/03/01 05:14:13;;;;;;;19.45;9.50;;;;;;;3.75;70.77;100248.74;1723978;81;21326;-83
2021/03/01 05:16:41;;;;;;;21.82;9.60;;;;;;;3.74;70.37;100249.98;1786994;80;21283;-82
2021/03/01 05:19:10;;;;;;;23.30;9.65;;;;;;;3.73;70.17;100244.41;1787007;80;21270;-83
2021/03/01 05:21:37;;;;;;;23.32;9.13;;;;;;;3.72;70.57;100246.52;1785900;80;21325;-82
2021/03/01 05:24:06;;;;;;;26.62;10.70;;;;;;;3.67;70.89;100257.14;1786618;80;21309;-82
2021/03/01 05:26:35;;;;;;;24.37;10.00;;;;;;;3.67;70.69;100258.43;1786252;80;21270;-81
2021/03/01 05:29:05;;;;;;;19.15;9.65;;;;;;;3.65;69.78;100257.10;1786826;80;21526;-81
2021/03/01 05:31:33;;;;;;;29.72;9.38;;;;;;;3.66;70.12;100257.57;1784712;80;21337;-84
2021/03/01 05:34:01;;;;;;;20.00;9.00;;;;;;;3.61;70.98;100257.02;1785957;80;21300;-83
2021/03/01 05:36:32;;;;;;;24.82;9.63;;;;;;;3.59;71.04;100253.98;1786420;77;21294;-83
2021/03/01 05:39:00;;;;;;;20.52;8.85;;;;;;;3.65;69.17;100249.81;1785165;80;21306;-82
2021/03/01 05:41:28;;;;;;;20.55;8.33;;;;;;;3.63;71.08;100256.20;1786038;77;21266;-82
2021/03/01 05:43:56;;;;;;;22.37;9.60;;;;;;;3.66;70.47;100262.72;1785868;80;21287;-83
2021/03/01 05:46:24;;;;;;;32.63;13.22;;;;;;;3.70;70.85;100258.48;1786457;80;21298;-81
2021/03/01 05:48:54;;;;;;;75.80;31.80;;;;;;;3.78;70.21;100259.11;1787254;80;21267;-82
2021/03/01 05:51:25;;;;;;;37.10;17.70;;;;;;;3.78;70.40;100273.69;1786117;80;21228;-82
2021/03/01 05:53:56;;;;;;;32.53;13.53;;;;;;;3.82;70.33;100267.77;1770088;80;21086;-83
2021/03/01 05:56:25;;;;;;;24.98;11.48;;;;;;;3.84;70.72;100269.95;1770094;80;21335;-83
2021/03/01 05:58:55;;;;;;;26.23;10.82;;;;;;;3.89;69.55;100268.33;1786993;80;21288;-83
2021/03/01 06:01:26;;;;;;;23.18;10.43;;;;;;;3.91;69.24;100273.51;1807915;79;21255;-83
2021/03/01 06:03:55;;;;;;;31.48;12.15;;;;;;;3.89;69.88;100278.62;1786294;80;21266;-83
2021/03/01 06:06:22;;;;;;;31.10;12.00;;;;;;;3.91;68.90;100276.08;1797212;79;21584;-81
2021/03/01 06:08:50;;;;;;;26.77;10.65;;;;;;;3.90;69.08;100285.52;1786297;80;21652;-83
2021/03/01 06:11:17;;;;;;;91.28;22.75;;;;;;;3.93;69.09;100282.98;1786810;80;21297;-83
2021/03/01 06:13:45;;;;;;;31.23;12.80;;;;;;;3.92;69.65;100285.52;1787009;80;21281;-83
2021/03/01 06:16:13;;;;;;;28.65;12.10;;;;;;;3.95;70.43;100285.59;1796695;79;21526;-82
2021/03/01 06:18:46;;;;;;;29.45;11.70;;;;;;;3.97;69.72;100284.78;1821521;79;21244;-82
2021/03/01 06:21:18;;;;;;;26.15;11.10;;;;;;;4.00;68.56;100295.59;1803682;79;21289;-83
2021/03/01 06:23:46;;;;;;;27.95;11.03;;;;;;;4.01;68.85;100287.01;1786574;80;21290;-83
2021/03/01 06:26:24;;;;;;;26.82;11.48;;;;;;;4.02;68.92;100292.62;1781750;79;21278;-82
2021/03/01 06:29:09;;;;;;;27.75;11.48;;;;;;;4.02;68.86;100297.77;1791211;79;21288;-82
2021/03/01 06:31:48;;;;;;;23.95;10.58;;;;;;;4.01;68.68;100296.02;1799820;79;21294;-82
2021/03/01 06:34:25;;;;;;;23.67;10.20;;;;;;;4.01;68.95;100289.58;1785979;80;21301;-81
2021/03/01 06:37:09;;;;;;;25.65;10.93;;;;;;;4.04;68.23;100287.48;1786746;80;21298;-82
2021/03/01 06:39:41;;;;;;;30.75;11.68;;;;;;;4.03;69.00;100290.48;1773080;80;21249;-82
2021/03/01 06:42:22;;;;;;;28.92;12.88;;;;;;;4.11;68.70;100297.94;1787862;79;21307;-82
2021/03/01 06:45:01;;;;;;;30.52;14.70;;;;;;;4.19;68.78;100316.97;1797548;80;21284;-82
2021/03/01 06:47:48;;;;;;;30.08;12.55;;;;;;;4.27;68.72;100316.27;1791080;80;21210;-83
2021/03/01 06:50:42;;;;;;;26.75;12.05;;;;;;;4.28;67.90;100323.17;1784645;80;21221;-83
2021/03/01 06:53:15;;;;;;;27.70;11.83;;;;;;;4.26;67.94;100318.37;1795895;80;21266;-83
2021/03/01 06:55:59;;;;;;;30.75;12.85;;;;;;;4.25;68.59;100319.23;1797982;80;21303;-82
2021/03/01 06:58:29;;;;;;;;;;;;;;;4.24;68.74;100328.67;1789594;78;21259;-83
2021/03/01 07:01:14;;;;;;;26.80;12.73;;;;;;;4.22;68.56;100326.88;1829134;78;20182;-84
2021/03/01 07:03:45;;;;;;;49.85;14.05;;;;;;;4.19;68.79;100327.27;1797140;79;21268;-84
2021/03/01 07:06:14;;;;;;;32.93;13.05;;;;;;;4.23;69.28;100333.78;1796585;78;21235;-83
2021/03/01 07:08:54;;;;;;;37.60;13.60;;;;;;;4.23;69.69;100336.36;1806790;79;21531;-82
2021/03/01 07:11:27;;;;;;;35.20;13.43;;;;;;;4.27;69.58;100340.73;1800760;79;21265;-83
2021/03/01 07:14:06;;;;;;;37.45;14.45;;;;;;;4.27;69.58;100345.45;1798472;79;21257;-84
2021/03/01 07:16:46;;;;;;;36.88;15.28;;;;;;;4.33;69.32;100346.86;1794072;79;21325;-83
2021/03/01 07:19:27;;;;;;;31.65;12.82;;;;;;;4.40;69.37;100355.59;1810014;78;21161;-83
2021/03/01 07:22:03;;;;;;;34.98;14.05;;;;;;;4.46;68.87;100359.58;1799428;78;21241;-85
2021/03/01 07:25:13;;;;;;;33.50;12.93;;;;;;;4.46;68.60;100354.43;1794817;78;21273;31
2021/03/01 07:27:55;;;;;;;32.33;12.90;;;;;;;4.46;68.43;100354.43;1704993;82;21192;-89
2021/03/01 07:30:54;;;;;;;31.23;13.32;;;;;;;4.46;68.49;100354.43;1722272;77;21099;-88
2021/03/01 07:33:22;;;;;;;29.65;13.53;;;;;;;4.48;68.24;100351.46;1686389;84;21186;-88
2021/03/01 07:39:37;;;;;;;40.48;15.72;;;;;;;4.65;67.98;100372.37;1703444;83;21272;-86
2021/03/01 07:43:14;;;;;;;40.80;14.98;;;;;;;4.85;67.60;100394.66;1622864;87;21202;-84
2021/03/01 07:46:25;;;;;;;33.88;12.47;;;;;;;4.85;67.60;100394.66;1655432;84;21280;-85
2021/03/01 08:01:19;;;;;;;39.00;15.93;;;;;;;4.91;67.31;100412.81;1582639;89;21233;-82
2021/03/01 08:03:47;;;;;;;35.85;15.32;;;;;;;4.93;66.97;100421.47;1601475;89;21235;-88
2021/03/01 08:06:16;;;;;;;38.78;15.95;;;;;;;4.94;67.12;100426.20;1680038;84;21216;-89
2021/03/01 08:08:50;;;;;;;33.00;13.43;;;;;;;4.93;67.96;100426.63;1665873;84;21254;-87
2021/03/01 08:11:46;;;;;;;30.10;14.93;;;;;;;4.98;67.69;100431.86;1668059;84;21213;-82
2021/03/01 08:15:31;;;;;;;28.60;13.43;;;;;;;5.01;67.56;100433.61;1675781;84;21183;-83
2021/03/01 08:18:57;;;;;;;34.98;14.50;;;;;;;5.04;67.30;100434.98;1676480;84;21283;-83
2021/03/01 08:21:52;;;;;;;35.95;15.35;;;;;;;5.06;67.06;100434.58;1669906;84;22357;-90
2021/03/01 08:25:08;;;;;;;29.80;13.55;;;;;;;5.09;67.38;100435.91;1716049;78;21172;-88
2021/03/01 08:27:53;;;;;;;33.18;15.75;;;;;;;5.13;67.25;100434.73;1785416;79;21167;-90
2021/03/01 08:31:37;;;;;;;47.73;18.52;;;;;;;5.23;67.42;100429.29;1780531;78;21233;-87
2021/03/01 08:34:57;;;;;;;42.10;17.35;;;;;;;5.37;67.08;100426.95;1722835;82;21161;-88
2021/03/01 08:37:58;;;;;;;52.73;25.95;;;;;;;5.54;67.43;100432.41;1707113;80;21133;-84
2021/03/01 08:41:02;;;;;;;50.85;21.45;;;;;;;5.74;67.11;100434.03;1717729;81;21157;-84
2021/03/01 08:43:56;;;;;;;34.48;15.68;;;;;;;5.98;66.69;100440.02;1690615;82;21127;-84
2021/03/01 08:47:22;;;;;;;36.50;13.50;;;;;;;6.15;66.06;100446.74;1709542;81;21186;-84
2021/03/01 08:50:48;;;;;;;36.75;13.83;;;;;;;6.28;64.56;100439.59;1693548;79;21137;-84
2021/03/01 08:53:48;;;;;;;36.17;17.07;;;;;;;6.39;64.06;100425.55;1723951;78;21101;-84
2021/03/01 08:57:18;;;;;;;34.47;14.17;;;;;;;6.23;64.50;100428.75;1719160;82;21248;-83
2021/03/01 09:00:20;;;;;;;;;;;;;;;6.18;63.87;100431.28;1724994;78;21383;-84
2021/03/01 09:03:39;;;;;;;26.90;13.18;;;;;;;6.20;64.17;100431.30;1756546;78;20184;-89
2021/03/01 09:06:47;;;;;;;31.97;13.85;;;;;;;6.12;64.35;100426.03;1795793;75;21114;-83
2021/03/01 09:09:59;;;;;;;32.08;13.40;;;;;;;6.17;63.96;100430.42;1716016;77;21162;-84
2021/03/01 09:12:57;;;;;;;26.90;12.40;;;;;;;6.31;64.58;100434.48;1779878;78;21307;-84
2021/03/01 09:15:56;;;;;;;28.10;10.80;;;;;;;6.45;64.25;100428.21;1742480;78;21122;-84
2021/03/01 09:18:37;;;;;;;30.12;11.55;;;;;;;6.45;63.37;100433.81;1762202;80;21094;-84
2021/03/01 09:21:11;;;;;;;39.85;13.13;;;;;;;6.49;63.79;100441.61;1689071;83;21329;-83
2021/03/01 09:23:56;;;;;;;27.58;12.50;;;;;;;6.56;63.70;100442.55;1756469;79;21130;-82
2021/03/01 09:26:36;;;;;;;27.93;13.28;;;;;;;6.65;63.61;100457.32;1721818;78;21264;-85
2021/03/01 09:29:23;;;;;;;23.15;11.30;;;;;;;6.77;63.53;100458.33;1697015;83;21159;-84
2021/03/01 09:31:56;;;;;;;24.98;11.57;;;;;;;6.89;63.16;100467.95;1713155;83;21180;-86
2021/03/01 09:35:27;;;;;;;22.60;10.98;;;;;;;7.00;62.49;100472.38;1696063;80;21150;-84
2021/03/01 09:38:28;;;;;;;24.07;10.25;;;;;;;7.15;61.61;100476.00;1711730;83;21185;-85
2021/03/01 09:41:43;;;;;;;26.50;11.40;;;;;;;7.32;61.80;100474.00;1722704;80;21157;-83
2021/03/01 09:44:49;;;;;;;;;;;;;;;7.61;62.34;100466.53;1709826;81;21170;-83
2021/03/01 09:47:56;;;;;;;29.23;15.23;;;;;;;7.73;61.40;100476.98;1705782;81;20159;-83
2021/03/01 09:51:20;;;;;;;29.63;13.15;;;;;;;7.90;61.38;100479.73;1709214;80;21255;-85
2021/03/01 09:54:02;;;;;;;19.92;8.78;;;;;;;8.12;61.36;100484.64;1711319;83;21269;-88
2021/03/01 09:56:53;;;;;;;18.25;10.65;;;;;;;8.17;59.38;100485.52;1721966;83;21268;-83
2021/03/01 09:59:45;;;;;;;23.18;10.98;;;;;;;8.25;58.99;100487.31;1702570;83;21115;-84
2021/03/01 10:02:24;;;;;;;30.77;11.48;;;;;;;8.37;59.63;100480.91;1713534;83;21178;-93
2021/03/01 10:05:17;;;;;;;29.85;12.58;;;;;;;8.48;59.71;100479.28;1673820;84;21293;-90
2021/03/01 10:08:36;;;;;;;26.73;11.28;;;;;;;8.52;58.61;100481.47;1680241;83;21290;-92
2021/03/01 10:11:27;;;;;;;25.92;10.85;;;;;;;8.62;57.58;100484.98;1611563;87;21193;-92
2021/03/01 10:14:15;;;;;;;24.95;11.33;;;;;;;8.66;58.34;100478.52;1660695;85;22165;-91
2021/03/01 10:16:43;;;;;;;20.92;9.50;;;;;;;8.72;58.31;100481.57;1653018;85;21331;-87
2021/03/01 10:19:34;;;;;;;24.35;9.58;;;;;;;8.79;58.33;100482.45;1660541;85;21335;-91
2021/03/01 10:22:15;;;;;;;18.80;8.10;;;;;;;8.83;58.56;100483.76;1722055;81;21727;-90
2021/03/01 10:25:07;;;;;;;16.37;8.53;;;;;;;8.87;56.39;100480.34;1650844;84;21149;-91
2021/03/01 10:27:44;;;;;;;16.67;9.05;;;;;;;9.05;58.18;100476.06;1708519;83;21291;-91
2021/03/01 10:34:19;;;;;;;23.50;9.38;;;;;;;9.35;57.68;100474.86;1745581;79;21299;-90
2021/03/01 10:37:31;;;;;;;17.50;8.95;;;;;;;9.36;57.26;100479.17;1762564;77;21136;-91
2021/03/01 10:40:38;;;;;;;19.80;8.98;;;;;;;9.52;57.03;100475.31;1684305;82;21308;-87
2021/03/01 10:44:22;;;;;;;19.80;9.95;;;;;;;9.83;57.25;100471.42;1721671;79;21149;-89
2021/03/01 10:48:08;;;;;;;21.85;11.85;;;;;;;10.17;57.58;100477.48;1698478;83;21111;-86
2021/03/01 10:50:36;;;;;;;22.45;10.05;;;;;;;10.40;54.33;100470.95;1701129;83;21212;-87
2021/03/01 10:53:05;;;;;;;19.70;7.70;;;;;;;10.69;51.34;100471.33;1730821;78;21280;-91
2021/03/01 10:55:34;;;;;;;18.27;9.00;;;;;;;10.93;51.94;100465.16;1771310;81;21565;-92
2021/03/01 10:58:02;;;;;;;19.10;10.13;;;;;;;11.32;54.21;100460.17;1776454;79;22295;-91
2021/03/01 11:00:44;;;;;;;24.45;12.07;;;;;;;11.65;52.39;100458.63;1707866;82;21138;-91
2021/03/01 11:03:13;;;;;;;21.93;10.88;;;;;;;11.91;52.41;100453.23;1657995;84;21243;-88
2021/03/01 11:05:43;;;;;;;19.50;10.63;;;;;;;12.02;49.20;100454.46;1649022;86;21244;-88
2021/03/01 11:08:35;;;;;;;18.55;9.95;;;;;;;12.07;46.75;100453.52;1673086;84;21234;-86
2021/03/01 11:11:14;;;;;;;15.25;9.15;;;;;;;12.17;47.98;100454.29;1649921;86;21298;-85
2021/03/01 11:13:57;;;;;;;15.38;7.80;;;;;;;12.03;47.11;100449.66;1621535;87;21291;-86
2021/03/01 11:16:32;;;;;;;24.07;12.47;;;;;;;11.60;47.95;100453.47;1612478;88;21323;-85
2021/03/01 11:19:17;;;;;;;17.30;8.75;;;;;;;11.59;50.40;100451.73;1686885;80;21244;-86
2021/03/01 11:21:57;;;;;;;20.82;10.93;;;;;;;11.58;48.45;100456.94;1693332;82;21257;-86
2021/03/01 11:24:25;;;;;;;16.48;9.28;;;;;;;11.78;49.63;100451.57;1686012;84;21176;-90
2021/03/01 11:26:54;;;;;;;17.10;8.80;;;;;;;11.99;48.23;100457.08;1695966;83;21185;-88
2021/03/01 11:29:31;;;;;;;17.57;7.37;;;;;;;12.26;49.99;100456.81;1690676;78;21295;31
2021/03/01 11:31:58;;;;;;;16.10;8.28;;;;;;;12.22;47.29;100464.25;1674552;85;21775;-92
2021/03/01 11:34:41;;;;;;;13.20;7.30;;;;;;;11.65;44.59;100466.45;1692831;82;21243;-89
2021/03/01 11:37:09;;;;;;;13.05;6.83;;;;;;;11.77;45.36;100458.98;1693974;83;21217;-90
2021/03/01 11:39:37;;;;;;;12.73;6.28;;;;;;;11.71;43.67;100459.44;1708596;83;21201;-87
2021/03/01 11:42:05;;;;;;;15.78;7.00;;;;;;;11.63;46.45;100427.83;1695072;83;21252;-88
2021/03/01 11:44:33;;;;;;;17.62;8.25;;;;;;;11.95;47.22;100458.84;1701868;83;21174;-89
2021/03/01 11:47:01;;;;;;;16.93;7.12;;;;;;;11.95;46.47;100460.15;1702298;83;21224;-92
2021/03/01 11:49:44;;;;;;;17.15;7.28;;;;;;;12.04;45.30;100462.68;1703125;83;21280;-86
2021/03/01 11:52:18;;;;;;;14.33;7.87;;;;;;;11.98;47.72;100460.13;1760455;81;21267;-87
2021/03/01 11:55:28;;;;;;;19.67;7.22;;;;;;;11.85;46.24;100466.29;1669985;83;21122;-86
2021/03/01 11:58:12;;;;;;;17.60;9.00;;;;;;;11.65;47.46;100463.40;1693523;83;21268;-89
2021/03/01 12:00:42;;;;;;;12.53;6.05;;;;;;;11.10;46.42;100481.55;1718896;83;21170;-90
2021/03/01 12:03:41;;;;;;;16.30;8.43;;;;;;;10.87;45.90;100476.45;1703513;83;21207;-84
2021/03/01 12:10:14;;;;;;;18.00;8.25;;;;;;;10.45;48.10;100469.67;1646251;84;21161;-85
2021/03/01 12:13:27;;;;;;;15.27;7.27;;;;;;;10.54;48.69;100473.11;1638879;88;21210;-86
2021/03/01 12:16:47;;;;;;;15.85;7.85;;;;;;;10.55;46.72;100473.52;1639432;84;21323;-87
2021/03/01 12:19:15;;;;;;;17.25;8.35;;;;;;;10.56;48.38;100475.68;1622887;87;21231;-92
2021/03/01 12:21:42;;;;;;;12.05;6.60;;;;;;;10.54;47.76;100479.61;1612978;87;22141;-92
2021/03/01 12:24:12;;;;;;;12.80;6.50;;;;;;;10.41;48.53;100488.30;1636568;87;21231;-93
2021/03/01 12:27:21;;;;;;;12.25;5.40;;;;;;;10.21;47.54;100488.30;1641470;86;21217;-93
2021/03/01 12:29:49;;;;;;;14.87;6.30;;;;;;;10.02;47.05;100484.84;1647947;86;21166;-91
2021/03/01 12:32:17;;;;;;;11.57;6.20;;;;;;;9.98;48.56;100489.61;1640000;86;21168;-93
2021/03/01 12:34:45;;;;;;;13.75;7.10;;;;;;;9.94;48.63;100495.67;1643693;86;21205;-92
2021/03/01 12:37:13;;;;;;;16.50;7.65;;;;;;;9.78;48.08;100488.75;1636070;86;21240;-92